Latest Weather Observations for Swan Hill

IDN60801

Issued at 5:32 pm EDT Wednesday 10 February 2016 (issued every 30 minutes, with the page automatically refreshed every 10 minutes)

About weather observations | Map of weather stations | Latest weather observations for NSW | Other Formats
Station Details ID: 077094 Name: SWAN HILL AERODROME Lat: -35.38 Lon: 143.54 Height: 71.0 m
Data from the previous 72 hours. | See also: Recent months at Swan Hill
Date/Time
EDT
Temp
°C
App
Temp
°C
Dew
Point
Rel
Hum
%
Delta-T
°C
Wind Press
QNH
hPa
Press
MSL
hPa
Rain
since 9 am
mm
Dir
 
Spd
km/h
Gust
km/h
Spd
kts
Gust
kts
10/05:30pm 34.5 28.5 -2.9 9 17.6 SW 19 30 10 16 1010.3 1010.0 0.0
10/05:00pm 35.4 30.3 -2.3 9 18.1 SSW 15 30 8 16 1010.2 1009.9 0.0
10/04:30pm 34.6 29.6 -1.4 10 17.4 SSW 15 26 8 14 1010.4 1010.1 0.0
10/04:00pm 35.5 29.6 -0.8 10 17.8 WSW 20 35 11 19 1010.5 1010.2 0.0
10/03:30pm 34.9 29.5 1.3 12 17.0 SSW 19 35 10 19 1010.9 1010.6 0.0
10/03:00pm 34.2 28.9 2.9 14 16.2 SW 20 30 11 16 1011.3 1011.0 0.0
10/02:30pm 34.4 29.3 3.1 14 16.2 SW 19 33 10 18 1011.7 1011.4 0.0
10/02:00pm 33.9 29.8 4.6 16 15.5 SSW 15 24 8 13 1012.2 1011.9 0.0
10/01:30pm 33.0 28.9 6.3 19 14.5 SSW 17 28 9 15 1012.4 1012.1 0.0
10/01:00pm 32.4 29.9 6.6 20 14.0 S 9 20 5 11 1012.9 1012.6 0.0
10/12:30pm 31.7 28.6 7.4 22 13.3 SE 13 20 7 11 1013.2 1012.9 0.0
10/12:00pm 30.3 28.1 9.2 27 11.8 ESE 11 22 6 12 1013.6 1013.3 0.0
10/11:30am 29.1 27.8 11.2 33 10.3 SSE 9 13 5 7 1013.9 1013.6 0.0
10/11:00am 27.4 26.3 11.8 38 9.0 S 9 15 5 8 1014.2 1013.9 0.0
10/10:30am 26.3 25.3 12.4 42 8.1 E 9 13 5 7 1014.4 1014.1 0.0
10/10:00am 24.3 23.4 12.6 48 6.7 ESE 9 15 5 8 1014.4 1014.1 0.0
10/09:30am 23.4 22.4 12.4 50 6.3 ESE 9 15 5 8 1014.3 1014.0 0.0
10/09:00am 22.4 20.7 12.4 53 5.7 ESE 13 17 7 9 1014.2 1013.9 0.0
10/08:30am 20.6 18.8 11.0 54 5.3 SE 11 15 6 8 1013.9 1013.6 0.0
10/08:00am 18.9 17.2 9.9 56 4.8 SSE 9 13 5 7 1013.7 1013.4 0.0
10/07:30am 17.3 15.6 9.7 61 4.0 SSE 9 13 5 7 1013.5 1013.2 0.0
10/07:00am 16.0 14.1 9.0 63 3.6 SSE 9 13 5 7 1013.3 1013.0 0.0
10/06:30am 16.1 14.6 9.1 63 3.6 SE 7 11 4 6 1013.0 1012.7 0.0
10/06:00am 16.5 15.0 8.5 59 4.1 SE 6 9 3 5 1012.8 1012.5 0.0
10/05:30am 17.5 15.7 9.4 59 4.2 SE 9 11 5 6 1012.6 1012.3 0.0
10/05:00am 16.8 15.0 8.0 56 4.5 SSE 7 9 4 5 1012.4 1012.1 0.0
10/04:30am 18.1 16.4 8.4 53 5.0 SSE 7 9 4 5 1012.3 1012.0 0.0
10/04:00am 18.6 16.7 7.4 48 5.7 SE 7 11 4 6 1012.3 1012.0 0.0
10/03:30am 19.1 16.7 6.9 45 6.2 SSE 9 13 5 7 1012.5 1012.2 0.0
10/03:00am 20.1 17.1 6.1 40 7.0 SSE 11 13 6 7 1012.7 1012.4 0.0
10/02:30am 21.3 17.7 5.2 35 8.0 SSE 13 19 7 10 1012.8 1012.5 0.0
10/02:00am 21.8 18.2 3.0 29 9.0 SSE 11 15 6 8 1013.0 1012.7 0.0
10/01:30am 19.6 16.8 2.9 33 7.8 S 7 9 4 5 1013.3 1013.0 0.0
10/01:00am 19.6 16.9 2.9 33 7.8 SSE 6 7 3 4 1013.5 1013.2 0.0
10/12:30am 20.8 17.5 0.1 25 9.3 SSE 7 11 4 6 1013.6 1013.3 0.0
10/12:00am 21.1 18.2 1.4 27 9.1 SSE 6 9 3 5 1013.9 1013.6 0.0
 
Date/Time
EDT
Temp
°C
App
Temp
°C
Dew
Point
Rel
Hum
%
Delta-T
°C
Wind Press
QNH
hPa
Press
MSL
hPa
Rain
since 9 am
mm
Dir
 
Spd
km/h
Gust
km/h
Spd
kts
Gust
kts
09/11:30pm 21.2 18.6 1.0 26 9.2 SSE 4 6 2 3 1014.1 1013.8 0.0
09/11:00pm 21.3 18.0 2.6 29 8.8 SSE 9 11 5 6 1014.2 1013.9 0.0
09/10:30pm 22.1 20.7 3.3 29 9.0 CALM 0 0 0 0 1014.4 1014.1 0.0
09/10:00pm 24.0 22.6 3.3 26 10.1 CALM 0 0 0 0 1014.2 1013.9 0.0
09/09:30pm 25.6 22.7 -1.2 17 12.2 WSW 4 6 2 3 1014.1 1013.8 0.0
09/09:00pm 28.6 24.8 -3.6 12 14.3 WSW 7 9 4 5 1013.9 1013.6 0.0
09/08:30pm 30.8 26.6 -4.3 10 15.7 SW 9 11 5 6 1013.9 1013.6 0.0
09/08:00pm 33.0 27.3 -4.0 9 16.9 SW 17 20 9 11 1013.9 1013.6 0.0
09/07:30pm 34.1 29.2 -3.2 9 17.4 SW 13 20 7 11 1013.8 1013.5 0.0
09/07:00pm 34.3 28.5 -4.6 8 17.8 WSW 17 22 9 12 1013.8 1013.5 0.0
09/06:30pm 34.6 29.6 -4.4 8 17.9 SW 13 24 7 13 1013.7 1013.4 0.0
09/06:00pm 34.8 28.7 -4.3 8 18.0 SW 19 28 10 15 1013.8 1013.5 0.0
09/05:30pm 34.5 29.1 -4.5 8 17.9 SW 15 24 8 13 1014.1 1013.8 0.0
09/05:00pm 35.0 29.3 -4.1 8 18.1 WSW 17 24 9 13 1014.3 1014.0 0.0
09/04:30pm 34.1 27.9 -3.2 9 17.4 SW 20 30 11 16 1014.7 1014.4 0.0
09/04:00pm 34.7 29.7 -4.4 8 18.0 SW 13 24 7 13 1015.0 1014.7 0.0
09/03:30pm 34.3 29.8 -3.1 9 17.5 WSW 11 20 6 11 1015.4 1015.1 0.0
09/03:00pm 33.9 29.6 -2.0 10 17.1 WSW 11 20 6 11 1015.9 1015.6 0.0
09/02:30pm 32.6 28.8 -0.5 12 16.0 SW 9 13 5 7 1016.3 1016.0 0.0
09/02:00pm 32.5 28.5 0.6 13 15.7 WSW 11 17 6 9 1016.7 1016.4 0.0
09/01:30pm 31.5 28.1 1.8 15 14.8 W 9 17 5 9 1017.1 1016.8 0.0
09/01:00pm 29.5 26.9 6.2 23 12.3 SW 9 15 5 8 1017.6 1017.3 0.0
09/12:30pm 28.1 25.7 6.8 26 11.3 SSW 9 15 5 8 1018.2 1017.8 0.0
09/12:00pm 27.8 26.2 8.6 30 10.5 ESE 7 15 4 8 1018.8 1018.4 0.0
09/11:30am 25.3 23.8 9.2 36 8.8 SE 7 13 4 7 1018.9 1018.5 0.0
09/11:00am 23.8 21.8 10.1 42 7.5 ESE 11 20 6 11 1019.1 1018.7 0.0
09/10:30am 22.1 19.4 10.3 47 6.5 ESE 15 22 8 12 1019.1 1018.7 0.0
09/10:00am 21.2 18.5 10.4 50 5.9 SE 15 20 8 11 1019.3 1018.9 0.0
09/09:30am 20.0 16.8 9.9 52 5.4 SE 17 22 9 12 1019.6 1019.2 0.0
09/09:00am 19.0 15.8 9.8 55 4.9 SSE 17 26 9 14 1019.6 1019.2 0.0
09/08:30am 17.6 14.4 9.8 60 4.1 SSE 17 24 9 13 1019.4 1019.0 0.0
09/08:00am 16.4 13.9 9.8 65 3.5 SSE 13 19 7 10 1019.2 1018.8 0.0
09/07:30am 14.7 13.2 9.3 70 2.8 SSE 7 11 4 6 1019.1 1018.7 0.0
09/07:00am 14.2 12.7 9.2 72 2.6 SSE 7 9 4 5 1019.0 1018.6 0.0
09/06:30am 14.7 12.9 9.3 70 2.8 SSE 9 13 5 7 1018.7 1018.3 0.0
09/06:00am 15.2 13.3 9.1 67 3.1 SSE 9 13 5 7 1018.5 1018.1 0.0
09/05:30am 15.7 13.8 9.1 65 3.4 SSE 9 11 5 6 1018.4 1018.0 0.0
09/05:00am 16.5 14.3 9.4 63 3.7 SSE 11 17 6 9 1018.3 1017.9 0.0
09/04:30am 17.1 14.1 9.3 60 4.1 SSE 15 22 8 12 1018.2 1017.8 0.0
09/04:00am 17.8 14.8 9.4 58 4.4 SSE 15 22 8 12 1018.0 1017.7 0.0
09/03:30am 18.5 15.6 9.6 56 4.7 SE 15 22 8 12 1018.0 1017.7 0.0
09/03:00am 19.2 15.9 9.7 54 5.1 SSE 17 24 9 13 1018.0 1017.7 0.0
09/02:30am 20.1 16.5 9.7 51 5.6 SSE 19 26 10 14 1018.2 1017.8 0.0
09/02:00am 20.7 17.4 9.6 49 5.9 SSE 17 28 9 15 1018.3 1017.9 0.0
09/01:30am 21.5 17.6 9.4 46 6.5 SSE 20 30 11 16 1018.3 1017.9 0.0
09/01:00am 22.2 18.4 9.0 43 7.0 SSE 19 30 10 16 1018.3 1017.9 0.0
09/12:30am 22.8 18.7 7.8 38 7.9 SE 19 32 10 17 1018.5 1018.1 0.0
09/12:00am 23.7 19.3 7.3 35 8.6 SE 20 32 11 17 1018.5 1018.1 0.0
 
Date/Time
EDT
Temp
°C
App
Temp
°C
Dew
Point
Rel
Hum
%
Delta-T
°C
Wind Press
QNH
hPa
Press
MSL
hPa
Rain
since 9 am
mm
Dir
 
Spd
km/h
Gust
km/h
Spd
kts
Gust
kts
08/11:30pm 25.1 19.1 5.3 28 10.1 SE 26 39 14 21 1018.5 1018.1 0.0
08/11:00pm 26.1 22.1 9.0 34 9.3 SE 20 30 11 16 1018.4 1018.0 0.0
08/10:30pm 27.4 23.1 6.8 27 10.9 SSE 19 28 10 15 1018.2 1017.8 0.0
08/10:00pm 28.2 23.3 1.7 18 12.9 SSW 17 28 9 15 1017.4 1017.1 0.0
08/09:30pm 29.2 23.6 -0.1 15 13.9 SSW 19 28 10 15 1017.0 1016.7 0.0
08/09:00pm 30.3 25.5 2.5 17 13.9 SSW 17 28 9 15 1016.6 1016.3 0.0
08/08:30pm 31.6 26.4 2.7 16 14.6 SSW 19 28 10 15 1016.3 1016.0 0.0
08/08:00pm 33.1 27.9 5.6 18 14.7 SSW 22 33 12 18 1016.1 1015.8 0.0
08/07:30pm 33.9 28.9 6.3 18 15.0 SSW 22 32 12 17 1015.8 1015.5 0.0
08/07:00pm 34.9 30.0 7.1 18 15.4 SSW 22 35 12 19 1015.5 1015.2 0.0
08/06:30pm 35.1 30.5 6.4 17 15.7 SSW 20 32 11 17 1015.4 1015.1 0.0
08/06:00pm 35.9 31.4 6.2 16 16.3 S 19 33 10 18 1015.4 1015.1 0.0
08/05:30pm 36.2 32.0 7.3 17 16.2 SW 19 32 10 17 1015.5 1015.2 0.0
08/05:00pm 36.0 31.5 6.2 16 16.4 SSW 19 33 10 18 1015.6 1015.3 0.0
08/04:30pm 35.8 31.3 6.1 16 16.3 SSW 19 35 10 19 1015.9 1015.6 0.0
08/04:00pm 36.1 32.6 7.2 17 16.1 SSW 15 22 8 12 1016.1 1015.8 0.0
08/03:30pm 36.2 32.2 8.1 18 15.9 WSW 19 28 10 15 1016.3 1016.0 0.0
08/03:00pm 35.0 32.4 7.9 19 15.2 S 11 20 6 11 1016.6 1016.3 0.0
08/02:30pm 35.4 32.7 9.0 20 15.1 WSW 13 24 7 13 1017.0 1016.7 0.0
08/02:00pm 35.4 33.1 9.0 20 15.1 WSW 11 20 6 11 1017.5 1017.2 0.0
08/01:30pm 34.2 32.8 9.4 22 14.2 SW 7 17 4 9 1017.8 1017.5 0.0
08/01:00pm 33.2 31.9 9.9 24 13.4 WNW 7 15 4 8 1018.2 1017.8 0.0
08/12:30pm 32.3 31.6 11.5 28 12.2 SE 6 11 3 6 1018.5 1018.1 0.0
08/12:00pm 30.8 29.2 11.7 31 11.1 SE 11 19 6 10 1018.9 1018.5 0.0
08/11:30am 29.7 28.0 11.2 31 10.7 SE 11 17 6 9 1019.1 1018.7 0.0
08/11:00am 28.1 26.5 11.6 36 9.5 ESE 11 17 6 9 1019.2 1018.8 0.0
08/10:30am 27.0 25.0 11.5 38 8.9 SE 13 20 7 11 1019.2 1018.8 0.0
08/10:00am 25.6 23.0 10.6 39 8.4 SE 15 19 8 10 1019.3 1018.9 0.0
08/09:30am 24.4 21.3 10.3 41 7.8 SE 17 24 9 13 1019.3 1018.9 0.0
08/09:00am 23.3 20.1 10.0 43 7.3 SE 17 24 9 13 1019.3 1018.9 0.0
08/08:30am 22.5 19.7 10.0 45 6.8 SE 15 24 8 13 1019.2 1018.8 0.0
08/08:00am 21.2 19.4 11.0 52 5.6 SSE 11 15 6 8 1019.0 1018.6 0.0
08/07:30am 19.8 18.4 11.0 57 4.8 SSE 9 13 5 7 1018.7 1018.3 0.0
08/07:00am 19.2 17.7 10.7 58 4.6 SSE 9 13 5 7 1018.4 1018.0 0.0
08/06:30am 19.3 18.2 10.8 58 4.6 SSE 7 11 4 6 1018.0 1017.7 0.0
08/06:00am 19.7 18.3 10.9 57 4.8 S 9 11 5 6 1017.7 1017.4 0.0
08/05:30am 20.4 18.5 10.5 53 5.4 SSE 11 15 6 8 1017.3 1017.0 0.0
08/05:00am 21.0 19.5 10.5 51 5.7 SSE 9 13 5 7 1017.2 1016.9 0.0
08/04:30am 21.8 19.3 10.9 50 6.0 SE 15 19 8 10 1016.9 1016.6 0.0
08/04:00am 22.0 19.7 11.7 52 5.8 SSE 15 19 8 10 1016.9 1016.6 0.0
08/03:30am 22.4 20.6 12.1 52 5.8 SSE 13 17 7 9 1016.7 1016.4 0.0
08/03:00am 22.9 20.9 11.6 49 6.3 SE 13 17 7 9 1016.5 1016.2 0.0
08/02:30am 23.5 21.5 11.5 47 6.8 SSE 13 15 7 8 1016.5 1016.2 0.0
08/02:00am 24.7 22.6 11.3 43 7.6 SSE 13 20 7 11 1016.4 1016.1 0.0
08/01:30am 25.8 23.0 10.0 37 8.8 SSE 15 26 8 14 1016.3 1016.0 0.0
08/01:00am 23.5 23.2 8.8 39 7.9 CALM 0 0 0 0 1015.7 1015.4 0.0
08/12:30am 23.7 23.4 8.6 38 8.1 CALM 0 0 0 0 1015.7 1015.4 0.0
08/12:00am 25.8 23.6 7.9 32 9.6 E 9 11 5 6 1015.7 1015.4 0.0
 
Date/Time
EDT
Temp
°C
App
Temp
°C
Dew
Point
Rel
Hum
%
Delta-T
°C
Wind Press
QNH
hPa
Press
MSL
hPa
Rain
since 9 am
mm
Dir
 
Spd
km/h
Gust
km/h
Spd
kts
Gust
kts
07/11:30pm 25.8 23.2 7.9 32 9.6 E 11 11 6 6 1015.6 1015.3 0.0
07/11:00pm 25.6 23.5 8.1 33 9.4 E 9 9 5 5 1015.6 1015.3 0.0
07/10:30pm 26.6 24.6 7.1 29 10.3 E 7 9 4 5 1015.5 1015.2 0.0
07/10:00pm 27.7 25.7 7.0 27 11.0 E 7 9 4 5 1015.5 1015.2 0.0
07/09:30pm 29.1 26.7 7.1 25 11.8 ESE 9 11 5 6 1015.3 1015.0 0.0
07/09:00pm 30.1 27.8 7.3 24 12.4 ESE 9 11 5 6 1014.9 1014.6 0.0
07/08:30pm 32.0 29.3 5.5 19 14.1 SE 9 11 5 6 1014.7 1014.4 0.0
07/08:00pm 33.8 31.4 5.4 17 15.2 SSE 7 11 4 6 1014.5 1014.2 0.0
07/07:30pm 34.2 31.1 5.7 17 15.4 SE 11 17 6 9 1014.1 1013.8 0.0
07/07:00pm 34.6 31.2 6.0 17 15.6 ESE 13 19 7 10 1013.7 1013.4 0.0
07/06:30pm 34.9 32.2 5.4 16 15.9 SE 9 17 5 9 1013.6 1013.3 0.0
07/06:00pm 34.6 31.0 5.1 16 15.8 SE 13 20 7 11 1013.6 1013.3 0.0

Other Formats:

Comma delimited format used in spreadsheet applications
http://www.bom.gov.au/fwo/IDN60801/IDN60801.94843.axf

JavaScript Object Notation format (JSON) in row-major order
http://www.bom.gov.au/fwo/IDN60801/IDN60801.94843.json